DLH9911 RPLL-EDDF
Flight info
| Callsign | DLH9911 |
|---|---|
| Flight time | N/A |
| Altitude | 30000 |
| Route | SIRCA2R SIRCA L628 DODUS W3 AKOTA A583 SABNO DCT LEGOD/N0496F320 DCT BEKOL/K0920S0980 A461 SHL W22 TEPID W24 OSNOV G586 QP B330 ELKAL W179 IGNAK/K0904S1010 W179 WFX/K0906S0980 W179 OMBON W195 VIDEK/K0891S1010 W195 LAXAL/K0891S0980 W195 IDOPA W197 ANDIM B215 OMGUP/K0882S1040 B215 IBANO G470 AKLAS W192 FKG A368 SARIN/K0874F340 N161 UNABO/K0880F360 N161 GASBI/N0475F360 N161 LEYLA N644 ADEKI DCT BADIR DCT LAGAS DCT NOLGA UG261 TBN UM11 ARSUG/N0466F380 UM11 CRM UL746 ODERO DCT LUGEB DCT OPT DCT SOKRU DCT DEGET DCT ARSIN DCT SUBEN DCT AKINI T161 DEBHI DEBHI1D |
| Aircraft | A346/H-SDE2E3FGHIJ3J4J5M1RWXY/LB1D1 |
Departure
| Time | 2026-05-08 04:35 |
|---|---|
| Airport | Ninoy Aquino International Airport (RPLL) |
Arrival
| Time | N/A |
|---|---|
| Airport | Frankfurt Main Airport (EDDF) |
| Time | Latitude | Longitude | Altitude | Speed | Heading |
|---|---|---|---|---|---|
| 2026-05-08 03:57 | 14.51324 | 121.02195 | 77 ft | 0 kts | 301° |
| 2026-05-08 03:59 | 14.51324 | 121.02194 | 76 ft | 0 kts | 301° |
| 2026-05-08 03:59 | 14.51324 | 121.02195 | 77 ft | 0 kts | 301° |
| 2026-05-08 04:20 | 14.51324 | 121.02194 | 77 ft | 0 kts | 301° |
| 2026-05-08 04:21 | 14.51319 | 121.02202 | 66 ft | 0 kts | 301° |
| 2026-05-08 04:21 | 14.51306 | 121.02224 | 66 ft | 0 kts | 301° |
| 2026-05-08 04:22 | 14.51299 | 121.02236 | 66 ft | 0 kts | 301° |
| 2026-05-08 04:22 | 14.51300 | 121.02236 | 66 ft | 0 kts | 301° |
| 2026-05-08 04:23 | 14.51300 | 121.02235 | 77 ft | 0 kts | 301° |
| 2026-05-08 04:24 | 14.51301 | 121.02234 | 77 ft | 0 kts | 301° |
| 2026-05-08 04:25 | 14.51304 | 121.02229 | 68 ft | 0 kts | 301° |
| 2026-05-08 04:25 | 14.51301 | 121.02233 | 77 ft | 3 kts | 311° |
| 2026-05-08 04:25 | 14.51266 | 121.02248 | 69 ft | 9 kts | 354° |
| 2026-05-08 04:26 | 14.51215 | 121.02290 | 66 ft | 9 kts | 271° |
| 2026-05-08 04:26 | 14.51232 | 121.02328 | 66 ft | 0 kts | 239° |
| 2026-05-08 04:27 | 14.51215 | 121.02298 | 67 ft | 16 kts | 239° |
| 2026-05-08 04:28 | 14.51151 | 121.02187 | 69 ft | 20 kts | 239° |
| 2026-05-08 04:28 | 14.51071 | 121.02043 | 66 ft | 26 kts | 240° |
| 2026-05-08 04:28 | 14.50985 | 121.01887 | 67 ft | 24 kts | 240° |
| 2026-05-08 04:28 | 14.50903 | 121.01740 | 67 ft | 24 kts | 240° |
| 2026-05-08 04:29 | 14.50821 | 121.01594 | 67 ft | 23 kts | 240° |
| 2026-05-08 04:29 | 14.50740 | 121.01449 | 67 ft | 23 kts | 240° |
| 2026-05-08 04:29 | 14.50659 | 121.01305 | 69 ft | 23 kts | 240° |
| 2026-05-08 04:29 | 14.50580 | 121.01162 | 69 ft | 23 kts | 240° |
| 2026-05-08 04:30 | 14.50500 | 121.01018 | 67 ft | 23 kts | 240° |
| 2026-05-08 04:30 | 14.50421 | 121.00874 | 71 ft | 23 kts | 240° |
| 2026-05-08 04:30 | 14.50339 | 121.00727 | 67 ft | 23 kts | 240° |
| 2026-05-08 04:30 | 14.50257 | 121.00581 | 74 ft | 23 kts | 240° |
| 2026-05-08 04:31 | 14.50175 | 121.00435 | 72 ft | 23 kts | 240° |
| 2026-05-08 04:31 | 14.50094 | 121.00290 | 67 ft | 23 kts | 240° |
| 2026-05-08 04:31 | 14.50019 | 121.00155 | 70 ft | 21 kts | 240° |
| 2026-05-08 04:31 | 14.49958 | 121.00045 | 66 ft | 12 kts | 240° |
| 2026-05-08 04:32 | 14.49925 | 120.99989 | 68 ft | 4 kts | 230° |
| 2026-05-08 04:32 | 14.49922 | 120.99986 | 68 ft | 0 kts | 225° |
| 2026-05-08 04:33 | 14.49914 | 120.99980 | 72 ft | 7 kts | 213° |
| 2026-05-08 04:33 | 14.49817 | 121.00005 | 66 ft | 17 kts | 133° |
| 2026-05-08 04:33 | 14.49827 | 121.00084 | 69 ft | 12 kts | 57° |
| 2026-05-08 04:33 | 14.49840 | 121.00106 | 68 ft | 0 kts | 61° |
| 2026-05-08 04:34 | 14.49905 | 121.00225 | 66 ft | 53 kts | 60° |
| 2026-05-08 04:35 | 14.50211 | 121.00771 | 68 ft | 120 kts | 60° |
| 2026-05-08 04:35 | 14.50725 | 121.01693 | 67 ft | 174 kts | 60° |
| 2026-05-08 04:35 | 14.51374 | 121.02860 | 477 ft | 184 kts | 63° |
| 2026-05-08 04:35 | 14.51962 | 121.03987 | 1300 ft | 178 kts | 63° |
| 2026-05-08 04:36 | 14.52573 | 121.05158 | 1793 ft | 194 kts | 62° |
| 2026-05-08 04:36 | 14.53268 | 121.06409 | 2236 ft | 203 kts | 60° |
| 2026-05-08 04:36 | 14.54008 | 121.07687 | 2720 ft | 208 kts | 60° |
| 2026-05-08 04:36 | 14.54765 | 121.08974 | 3158 ft | 214 kts | 60° |
| 2026-05-08 04:37 | 14.55274 | 121.09878 | 3356 ft | 225 kts | 61° |
| 2026-05-08 04:37 | 14.56083 | 121.11343 | 3623 ft | 242 kts | 61° |
| 2026-05-08 04:37 | 14.57657 | 121.13080 | 4025 ft | 266 kts | 24° |
| 2026-05-08 04:37 | 14.59509 | 121.13327 | 4583 ft | 274 kts | 351° |
| 2026-05-08 04:38 | 14.60667 | 121.12924 | 4890 ft | 258 kts | 332° |
| 2026-05-08 04:38 | 14.62002 | 121.11649 | 4839 ft | 284 kts | 300° |
| 2026-05-08 04:38 | 14.62497 | 121.09633 | 5265 ft | 296 kts | 265° |
| 2026-05-08 04:38 | 14.62104 | 121.07564 | 6029 ft | 292 kts | 255° |
| 2026-05-08 04:39 | 14.61618 | 121.05511 | 6651 ft | 295 kts | 256° |
| 2026-05-08 04:39 | 14.61140 | 121.03431 | 7228 ft | 298 kts | 256° |
| 2026-05-08 04:39 | 14.60674 | 121.01341 | 7807 ft | 300 kts | 257° |
| 2026-05-08 04:39 | 14.60210 | 120.99225 | 8408 ft | 302 kts | 257° |
| 2026-05-08 04:40 | 14.59749 | 120.97094 | 8995 ft | 305 kts | 257° |
| 2026-05-08 04:40 | 14.59288 | 120.94948 | 9574 ft | 307 kts | 257° |
| 2026-05-08 04:40 | 14.58826 | 120.92786 | 10118 ft | 309 kts | 257° |
| 2026-05-08 04:40 | 14.58353 | 120.90575 | 10425 ft | 321 kts | 257° |
| 2026-05-08 04:41 | 14.57859 | 120.88269 | 10660 ft | 335 kts | 257° |
| 2026-05-08 04:41 | 14.57346 | 120.85872 | 10891 ft | 348 kts | 257° |
| 2026-05-08 04:41 | 14.56812 | 120.83377 | 11121 ft | 362 kts | 257° |
| 2026-05-08 04:41 | 14.56259 | 120.80799 | 11344 ft | 375 kts | 257° |
| 2026-05-08 04:42 | 14.55685 | 120.78119 | 11566 ft | 387 kts | 257° |
| 2026-05-08 04:42 | 14.55093 | 120.75360 | 11813 ft | 399 kts | 257° |
| 2026-05-08 04:42 | 14.54488 | 120.72539 | 12264 ft | 403 kts | 257° |
| 2026-05-08 04:42 | 14.53878 | 120.69700 | 12829 ft | 405 kts | 257° |
| 2026-05-08 04:43 | 14.53266 | 120.66851 | 13382 ft | 408 kts | 257° |
| 2026-05-08 04:43 | 14.52649 | 120.63977 | 13871 ft | 411 kts | 257° |
| 2026-05-08 04:43 | 14.52029 | 120.61093 | 14323 ft | 413 kts | 257° |
| 2026-05-08 04:43 | 14.51403 | 120.58180 | 14763 ft | 416 kts | 257° |
| 2026-05-08 04:44 | 14.50781 | 120.55287 | 15180 ft | 419 kts | 257° |
| 2026-05-08 04:44 | 14.50144 | 120.52330 | 15629 ft | 422 kts | 257° |